Time;durP1;ratioP1;P1;durP2;ratioP2;P2;SDS_P1;SDS_P2;PMS_P1;PMS_P2;Temp;Humidity;BMP_temperature;BMP_pressure;BME280_temperature;BME280_humidity;BME280_pressure;Samples;Min_cycle;Max_cycle;Signal;HPM_P1;HPM_P2
2022/01/20 00:01:59;;;;;;;27.67;2.55;;;;;;;3.20;96.57;102633.59;5075611;28;20033;-76
2022/01/20 00:04:35;;;;;;;23.50;2.92;;;;;;;3.17;97.19;102630.13;5075915;28;20032;-76
2022/01/20 00:25:58;;;;;;;22.45;3.25;;;;;;;3.99;89.54;102652.97;5075704;28;20048;-76
2022/01/20 00:33:44;;;;;;;19.08;2.97;;;;;;;3.99;84.45;102647.69;5075361;28;20037;-76
2022/01/20 00:38:38;;;;;;;22.33;3.13;;;;;;;3.98;84.40;102657.34;5075273;28;20492;-77
2022/01/20 00:41:04;;;;;;;16.48;2.65;;;;;;;4.00;84.74;102657.31;5075111;28;20033;-77
2022/01/20 00:43:29;;;;;;;19.95;2.78;;;;;;;4.01;84.74;102659.03;5074761;28;20461;-77
2022/01/20 00:45:55;;;;;;;23.05;3.35;;;;;;;3.98;85.77;102653.88;5073461;28;20040;-77
2022/01/20 00:48:21;;;;;;;20.85;3.20;;;;;;;3.97;86.11;102668.81;5075181;28;20194;-77
2022/01/20 00:50:47;;;;;;;21.52;3.35;;;;;;;4.03;86.80;102654.56;5074510;28;20047;-76
2022/01/20 00:53:13;;;;;;;17.77;2.75;;;;;;;4.06;86.99;102657.97;5074598;28;20435;-76
2022/01/20 00:55:40;;;;;;;21.85;2.83;;;;;;;4.11;86.90;102652.53;5074849;28;20028;-77
2022/01/20 00:58:06;;;;;;;24.83;3.08;;;;;;;4.14;87.05;102668.25;5074580;28;20032;-76
2022/01/20 01:00:32;;;;;;;24.48;3.00;;;;;;;4.16;87.19;102663.78;5074767;28;20032;-76
2022/01/20 01:02:57;;;;;;;28.02;3.38;;;;;;;4.22;86.83;102660.06;5075207;28;20056;-77
2022/01/20 01:05:24;;;;;;;24.73;3.28;;;;;;;4.31;87.21;102679.97;5074035;28;20150;-77
2022/01/20 01:07:52;;;;;;;24.20;3.92;;;;;;;4.32;86.78;102664.09;5073349;28;20544;-77
2022/01/20 01:10:21;;;;;;;13.43;2.25;;;;;;;4.17;86.69;102662.88;5075305;28;20037;-76
2022/01/20 01:12:58;;;;;;;14.35;1.75;;;;;;;4.04;84.06;102664.19;5075322;28;20036;-77
2022/01/20 01:15:33;;;;;;;9.98;1.40;;;;;;;3.92;83.03;102654.94;5074077;28;20107;-77
2022/01/20 01:23:25;;;;;;;6.35;1.00;;;;;;;3.70;83.44;102668.81;5074444;28;20041;-77
2022/01/20 01:25:51;;;;;;;4.30;1.30;;;;;;;3.62;83.74;102665.56;5073389;28;20029;-77
2022/01/20 01:28:18;;;;;;;14.73;1.75;;;;;;;3.56;83.84;102667.53;5074173;28;20037;-77
2022/01/20 01:33:30;;;;;;;10.32;2.00;;;;;;;3.55;84.77;102661.41;5074417;28;20060;-76
2022/01/20 01:35:58;;;;;;;10.70;1.95;;;;;;;3.54;85.32;102651.81;5074631;28;20042;-76
2022/01/20 01:38:35;;;;;;;14.63;2.30;;;;;;;3.57;85.85;102666.59;5074737;28;20029;-77
2022/01/20 01:41:03;;;;;;;26.65;2.35;;;;;;;3.52;86.51;102675.53;5074034;28;20078;-77
2022/01/20 01:43:31;;;;;;;20.27;2.67;;;;;;;3.51;87.40;102673.81;5073971;28;20067;-77
2022/01/20 01:45:56;;;;;;;20.42;2.95;;;;;;;3.61;86.78;102682.25;5074173;28;20124;-76
2022/01/20 01:48:21;;;;;;;26.63;3.40;;;;;;;3.68;86.20;102682.94;5073634;28;20048;-77
2022/01/20 01:50:47;;;;;;;21.50;2.97;;;;;;;3.78;84.79;102696.69;5072827;28;20128;-76
2022/01/20 01:53:14;;;;;;;17.23;2.40;;;;;;;3.86;83.77;102695.50;5074366;28;20498;-75
2022/01/20 01:55:40;;;;;;;23.02;3.75;;;;;;;3.89;83.71;102692.75;5073974;28;20044;-76
2022/01/20 01:58:05;;;;;;;26.65;3.92;;;;;;;3.93;83.67;102698.81;5072241;28;20388;-76
2022/01/20 02:00:32;;;;;;;18.35;3.45;;;;;;;3.91;84.27;102695.34;5073651;28;20035;-76
2022/01/20 02:02:58;;;;;;;24.95;4.18;;;;;;;3.90;83.78;102698.91;5073512;28;20029;-76
2022/01/20 02:05:24;;;;;;;25.27;3.60;;;;;;;3.92;82.84;102696.22;5073794;28;20119;-77
2022/01/20 02:18:50;;;;;;;24.92;3.20;;;;;;;3.74;82.51;102687.16;5073039;28;20143;-77
2022/01/20 02:21:16;;;;;;;21.40;3.47;;;;;;;3.78;82.48;102680.88;5071817;28;20038;-76
2022/01/20 02:23:42;;;;;;;36.45;3.90;;;;;;;3.82;82.71;102671.94;5072041;28;20111;-77
2022/01/20 02:26:08;;;;;;;25.40;3.92;;;;;;;3.85;81.73;102687.66;5073014;28;20327;-76
2022/01/20 02:28:33;;;;;;;34.38;3.75;;;;;;;3.84;81.93;102676.25;5073318;28;20029;-76
2022/01/20 02:30:59;;;;;;;27.02;4.43;;;;;;;3.83;81.86;102686.84;5073107;28;20476;-76
2022/01/20 02:33:29;;;;;;;31.25;3.55;;;;;;;3.86;80.98;102674.44;5072290;28;20115;-76
2022/01/20 02:35:57;;;;;;;32.85;4.57;;;;;;;3.93;80.99;102674.25;5071777;28;20067;-76
2022/01/20 02:38:44;;;;;;;24.63;3.63;;;;;;;3.97;81.25;102675.84;5071792;28;20104;-76
2022/01/20 02:46:39;;;;;;;38.20;5.25;;;;;;;4.17;86.58;102680.47;5073555;28;20055;-76
2022/01/20 02:49:07;;;;;;;22.23;3.38;;;;;;;4.02;88.50;102680.06;5072763;28;20057;-77
2022/01/20 02:51:33;;;;;;;26.50;3.63;;;;;;;3.74;89.65;102676.63;5073209;28;20453;-77
2022/01/20 02:53:59;;;;;;;29.35;3.55;;;;;;;3.49;90.16;102665.09;5073020;28;20473;-78
2022/01/20 02:56:25;;;;;;;25.67;4.00;;;;;;;3.29;90.79;102670.13;5073054;28;20036;-77
2022/01/20 02:58:50;;;;;;;29.70;3.63;;;;;;;3.14;91.69;102681.97;5073250;28;20107;-77
2022/01/20 03:01:16;;;;;;;16.25;3.45;;;;;;;3.06;92.42;102683.94;5072877;28;20033;-76
2022/01/20 03:03:41;;;;;;;26.98;3.83;;;;;;;3.08;92.86;102684.78;5072928;28;20065;-77
2022/01/20 03:06:07;;;;;;;37.05;4.00;;;;;;;3.13;92.83;102686.34;5072962;28;20178;-77
2022/01/20 03:08:34;;;;;;;25.40;3.10;;;;;;;3.23;92.04;102667.69;5073013;28;20032;-77
2022/01/20 03:10:59;;;;;;;28.67;4.15;;;;;;;3.36;91.31;102671.66;5072405;28;20037;-77
2022/01/20 03:13:25;;;;;;;30.45;3.92;;;;;;;3.41;91.41;102675.00;5073164;28;20028;-78
2022/01/20 03:15:51;;;;;;;30.45;3.60;;;;;;;3.37;91.62;102676.00;5072906;28;20039;-77
2022/01/20 03:18:16;;;;;;;24.90;3.80;;;;;;;3.32;92.15;102691.06;5073209;28;20064;-78
2022/01/20 03:20:41;;;;;;;23.88;3.55;;;;;;;3.27;92.33;102692.97;5072770;28;20043;-77
2022/01/20 03:23:07;;;;;;;25.92;3.70;;;;;;;3.21;92.62;102696.66;5073089;28;20082;-77
2022/01/20 03:25:32;;;;;;;30.40;3.40;;;;;;;3.25;92.43;102692.16;5072513;28;20035;-77
2022/01/20 03:27:58;;;;;;;25.80;3.45;;;;;;;3.28;92.37;102686.81;5072580;28;20028;-77
2022/01/20 03:30:26;;;;;;;26.33;3.38;;;;;;;3.29;92.38;102691.16;5072910;28;20032;-77
2022/01/20 03:32:51;;;;;;;24.30;3.28;;;;;;;3.30;92.27;102688.50;5076551;28;20544;-77
2022/01/20 03:35:17;;;;;;;23.02;3.38;;;;;;;3.29;93.06;102697.28;5076081;28;20064;-77
2022/01/20 03:37:43;;;;;;;13.18;2.38;;;;;;;3.33;92.95;102700.72;5076356;28;20029;-78
2022/01/20 03:40:09;;;;;;;21.52;2.05;;;;;;;3.27;93.15;102714.03;5076840;28;20021;-77
2022/01/20 03:42:35;;;;;;;11.75;1.65;;;;;;;3.18;93.75;102716.03;5076465;28;20028;-78
2022/01/20 03:45:01;;;;;;;7.22;1.35;;;;;;;3.09;94.14;102721.56;5076157;28;20033;-77
2022/01/20 03:47:26;;;;;;;14.88;1.95;;;;;;;3.03;93.81;102734.00;5075994;28;20049;-77
2022/01/20 03:52:39;;;;;;;12.57;1.77;;;;;;;2.93;94.52;102734.28;5034767;28;20060;-77
2022/01/20 03:55:04;;;;;;;11.25;2.00;;;;;;;2.92;95.29;102723.81;5076006;28;20040;-77
2022/01/20 03:57:30;;;;;;;9.20;1.70;;;;;;;2.93;95.29;102729.03;5076501;28;20040;-77
2022/01/20 03:59:55;;;;;;;13.10;2.25;;;;;;;2.96;96.10;102725.44;5074671;28;20107;-77
2022/01/20 04:02:21;;;;;;;9.70;1.40;;;;;;;2.99;96.28;102730.63;5075771;28;20061;-78
2022/01/20 04:04:46;;;;;;;20.13;3.40;;;;;;;3.01;96.62;102726.16;5075603;28;20472;-78
2022/01/20 04:07:11;;;;;;;15.90;1.73;;;;;;;3.05;96.70;102732.22;5074338;28;20033;-77
2022/01/20 04:09:37;;;;;;;14.38;1.85;;;;;;;3.07;96.64;102726.00;5074496;28;20081;-77
2022/01/20 04:12:03;;;;;;;19.75;2.45;;;;;;;3.11;96.33;102726.78;5075469;28;20064;-78
2022/01/20 04:14:31;;;;;;;15.82;1.88;;;;;;;3.15;95.85;102739.78;5074324;28;20401;-78
2022/01/20 04:19:23;;;;;;;16.75;2.40;;;;;;;3.10;91.64;102743.47;5075562;28;20098;-77
2022/01/20 04:21:49;;;;;;;17.25;2.10;;;;;;;3.00;91.60;102753.38;5074194;28;20429;-78
2022/01/20 04:24:15;;;;;;;17.67;2.30;;;;;;;2.89;91.74;102756.31;5075526;28;20158;-77
2022/01/20 04:26:43;;;;;;;21.58;3.30;;;;;;;2.83;92.01;102759.09;5075202;28;20067;-77
2022/01/20 04:29:11;;;;;;;19.92;2.40;;;;;;;2.77;90.78;102767.16;5076077;28;20028;-77
2022/01/20 04:31:37;;;;;;;15.63;2.38;;;;;;;2.77;89.94;102773.28;5075766;28;20062;-77
2022/01/20 04:34:04;;;;;;;30.73;2.83;;;;;;;2.78;89.68;102766.28;5075345;28;20039;-77
2022/01/20 04:36:33;;;;;;;13.63;2.45;;;;;;;2.79;89.41;102760.09;5074820;28;20024;-77
2022/01/20 04:39:02;;;;;;;17.58;2.80;;;;;;;2.86;88.48;102764.28;5073988;28;20116;-78
2022/01/20 04:41:31;;;;;;;18.65;2.75;;;;;;;2.95;90.74;102794.72;5075011;28;20068;-77
2022/01/20 04:43:58;;;;;;;23.52;3.92;;;;;;;2.78;93.79;102792.56;5074625;28;20059;-77
2022/01/20 04:46:54;;;;;;;23.73;4.05;;;;;;;2.60;93.31;102801.78;5074859;28;20029;-77
2022/01/20 04:59:32;;;;;;;37.67;4.75;;;;;;;2.10;93.97;102810.84;5074758;28;20044;-77
2022/01/20 05:01:57;;;;;;;35.28;4.63;;;;;;;2.07;93.75;102799.56;5074459;28;20086;-77
2022/01/20 05:04:24;;;;;;;30.90;4.32;;;;;;;2.04;93.88;102810.13;5073553;28;20040;-77
2022/01/20 05:06:53;;;;;;;37.35;4.28;;;;;;;2.02;93.78;102814.56;5074590;28;20108;-76
2022/01/20 05:09:20;;;;;;;40.30;4.55;;;;;;;2.04;94.11;102824.13;5073322;28;20028;-77
2022/01/20 05:11:50;;;;;;;39.85;4.78;;;;;;;2.05;94.12;102827.63;5074437;28;20067;-77
2022/01/20 05:14:16;;;;;;;41.23;5.60;;;;;;;2.12;93.17;102821.34;5074696;28;20074;-77
2022/01/20 05:16:41;;;;;;;36.80;4.53;;;;;;;2.17;93.21;102822.09;5074501;28;20036;-77
2022/01/20 05:19:07;;;;;;;27.65;4.60;;;;;;;2.25;91.81;102820.13;5073232;28;20037;-77
2022/01/20 05:21:32;;;;;;;34.67;4.53;;;;;;;2.29;91.10;102821.78;5074471;28;20029;-77
2022/01/20 05:23:58;;;;;;;37.22;4.68;;;;;;;2.38;89.59;102828.59;5074478;28;20422;-77
2022/01/20 05:26:23;;;;;;;35.95;4.55;;;;;;;2.48;87.51;102834.50;5074169;28;20431;-77
2022/01/20 05:28:48;;;;;;;25.33;3.95;;;;;;;2.53;85.81;102829.13;5074768;28;20102;-77
2022/01/20 05:31:14;;;;;;;28.55;3.38;;;;;;;2.56;82.93;102847.44;5074723;28;20036;-77
2022/01/20 05:33:39;;;;;;;23.15;3.47;;;;;;;2.64;81.44;102845.47;5074980;28;20396;-76
2022/01/20 05:36:05;;;;;;;33.00;3.88;;;;;;;2.74;78.85;102846.97;5074674;28;20041;-77
2022/01/20 05:38:30;;;;;;;28.10;3.33;;;;;;;2.86;78.19;102855.47;5074904;28;20449;-77
2022/01/20 05:40:55;;;;;;;20.15;3.28;;;;;;;2.99;74.98;102847.19;5074901;28;20040;-77
2022/01/20 05:43:21;;;;;;;20.08;2.90;;;;;;;3.04;75.16;102860.22;5072705;28;20048;-77
2022/01/20 05:45:46;;;;;;;9.60;2.17;;;;;;;3.06;74.02;102858.44;5074167;28;20211;-78
2022/01/20 05:48:17;;;;;;;21.63;2.47;;;;;;;3.06;73.43;102868.06;5055921;28;20083;-78
2022/01/20 05:50:43;;;;;;;18.15;2.90;;;;;;;3.06;74.39;102874.22;5074095;28;20033;-78
2022/01/20 05:53:09;;;;;;;20.27;3.05;;;;;;;3.06;73.62;102874.22;5071918;28;20040;-77
2022/01/20 05:55:35;;;;;;;15.30;2.70;;;;;;;3.07;73.84;102875.91;5073686;28;20361;-78
2022/01/20 05:58:02;;;;;;;17.88;2.83;;;;;;;3.05;73.58;102880.38;5072370;28;20036;-78
2022/01/20 06:00:27;;;;;;;25.27;4.15;;;;;;;3.02;74.49;102883.06;5073601;28;20036;-78
2022/01/20 06:05:38;;;;;;;23.48;3.63;;;;;;;2.87;81.58;102897.47;5073544;28;20097;-78
2022/01/20 06:08:06;;;;;;;23.70;3.90;;;;;;;2.69;83.33;102883.03;5073604;28;20039;-78
2022/01/20 06:10:31;;;;;;;24.40;3.58;;;;;;;2.59;82.30;102884.16;5073450;28;20064;-78
2022/01/20 06:12:58;;;;;;;23.52;3.28;;;;;;;2.55;81.24;102885.13;5073062;28;20115;-81
2022/01/20 06:15:24;;;;;;;14.27;2.65;;;;;;;2.52;81.01;102882.56;5073424;28;20081;-77
2022/01/20 06:17:49;;;;;;;17.30;2.00;;;;;;;2.52;79.55;102877.31;5071994;28;20029;-80
2022/01/20 06:20:14;;;;;;;12.75;2.58;;;;;;;2.52;79.46;102878.16;5073440;28;20032;-78
2022/01/20 06:22:41;;;;;;;15.95;2.58;;;;;;;2.49;78.32;102877.41;5073420;28;20036;-80
2022/01/20 06:25:08;;;;;;;19.27;2.35;;;;;;;2.49;77.65;102880.03;5073340;28;20500;-80
2022/01/20 06:27:34;;;;;;;16.35;2.30;;;;;;;2.51;75.44;102873.84;5073173;28;20056;-78
2022/01/20 06:30:00;;;;;;;14.20;2.55;;;;;;;2.55;73.91;102877.25;5071570;28;20468;-78
2022/01/20 06:32:27;;;;;;;15.70;2.28;;;;;;;2.52;72.74;102877.31;5072616;28;20566;-76
2022/01/20 06:34:52;;;;;;;13.63;2.17;;;;;;;2.50;71.66;102879.13;5072893;28;20025;-79
2022/01/20 06:37:17;;;;;;;9.18;1.70;;;;;;;2.49;72.26;102880.88;5071493;28;20469;-78
2022/01/20 06:39:43;;;;;;;13.88;2.30;;;;;;;2.48;72.56;102892.31;5071441;28;20096;-77
2022/01/20 06:42:08;;;;;;;18.73;2.40;;;;;;;2.43;72.49;102891.53;5072313;28;20029;-77
2022/01/20 06:44:34;;;;;;;14.13;3.05;;;;;;;2.36;72.78;102900.44;5072862;28;20090;-78
2022/01/20 06:46:59;;;;;;;17.65;2.40;;;;;;;2.31;73.01;102908.44;5072826;28;20056;-78
2022/01/20 06:49:25;;;;;;;17.33;2.17;;;;;;;2.25;73.31;102914.69;5074236;28;20053;-77
2022/01/20 06:51:50;;;;;;;13.23;2.25;;;;;;;2.19;73.55;102913.97;5072815;28;20048;-77
2022/01/20 06:54:16;;;;;;;10.23;1.88;;;;;;;2.20;73.72;102924.44;5073070;28;20045;-79
2022/01/20 06:56:42;;;;;;;18.17;2.97;;;;;;;2.35;74.34;102920.63;5075407;28;20088;-78
2022/01/20 06:59:12;;;;;;;16.80;2.45;;;;;;;2.40;75.18;102915.25;5074811;28;20033;-79
2022/01/20 07:01:38;;;;;;;20.35;2.53;;;;;;;2.50;74.47;102936.94;5072880;28;20033;-80
2022/01/20 07:04:04;;;;;;;10.02;2.15;;;;;;;2.53;74.33;102937.72;5073228;28;20103;-81
2022/01/20 07:06:29;;;;;;;13.90;2.22;;;;;;;2.58;72.13;102935.00;5076669;28;20035;-78
2022/01/20 07:08:55;;;;;;;9.75;2.08;;;;;;;2.61;71.13;102945.44;5077095;28;20107;-80
2022/01/20 07:11:20;;;;;;;9.02;1.80;;;;;;;2.57;71.83;102947.28;5076561;28;20123;-79
2022/01/20 07:13:46;;;;;;;18.88;2.50;;;;;;;2.55;72.47;102951.69;5075109;28;20043;-78
2022/01/20 07:16:11;;;;;;;12.65;2.35;;;;;;;2.54;72.14;102956.97;5076325;28;20028;-77
2022/01/20 07:18:36;;;;;;;15.73;2.10;;;;;;;2.56;71.92;102956.03;5075382;28;20052;-78
2022/01/20 07:21:02;;;;;;;16.90;2.33;;;;;;;2.58;72.16;102950.75;5076462;28;20071;-77
2022/01/20 07:23:27;;;;;;;13.70;2.08;;;;;;;2.59;72.61;102960.38;5076527;28;20372;-77
2022/01/20 07:25:53;;;;;;;18.52;2.85;;;;;;;2.54;74.13;102960.50;5076763;28;20028;-78
2022/01/20 07:28:18;;;;;;;20.13;3.65;;;;;;;2.53;74.58;102964.00;5076485;28;20029;-76
2022/01/20 07:30:44;;;;;;;12.80;2.25;;;;;;;2.59;74.55;102963.88;5076049;28;20039;-77
2022/01/20 07:33:10;;;;;;;18.42;2.53;;;;;;;2.64;76.35;102976.91;5076315;28;20040;-76
2022/01/20 07:35:36;;;;;;;24.15;2.75;;;;;;;2.57;78.57;102965.66;5074577;28;20033;-77
2022/01/20 07:38:03;;;;;;;15.88;2.30;;;;;;;2.44;79.63;102964.22;5076915;28;20103;-77
2022/01/20 07:40:29;;;;;;;14.23;2.10;;;;;;;2.31;78.24;102970.66;5074658;28;20033;-79
2022/01/20 07:42:55;;;;;;;9.95;1.40;;;;;;;2.27;76.06;102961.97;5076012;28;20032;-78
2022/01/20 07:45:21;;;;;;;10.98;1.60;;;;;;;2.23;75.83;102974.28;5076227;28;20135;-76
2022/01/20 07:47:47;;;;;;;22.75;2.38;;;;;;;2.19;76.91;102983.13;5076486;28;20039;-77
2022/01/20 07:50:13;;;;;;;23.75;2.80;;;;;;;2.16;77.82;102990.22;5074469;28;20134;-76
2022/01/20 07:52:38;;;;;;;14.80;3.15;;;;;;;2.13;79.45;102991.13;5074111;28;20561;-78
2022/01/20 07:55:04;;;;;;;20.15;2.35;;;;;;;2.09;80.42;103000.84;5075900;28;20028;-76
2022/01/20 07:57:29;;;;;;;22.65;3.45;;;;;;;2.07;81.57;102999.16;5075602;28;20361;-77
2022/01/20 07:59:55;;;;;;;19.27;2.40;;;;;;;2.19;82.48;103005.91;5075736;28;20068;-79
2022/01/20 08:02:20;;;;;;;14.63;2.88;;;;;;;2.29;82.56;103002.19;5074185;28;20491;-78
2022/01/20 08:04:45;;;;;;;19.65;3.15;;;;;;;2.32;82.68;103006.53;5074510;28;20036;-76
2022/01/20 08:07:11;;;;;;;18.23;2.95;;;;;;;2.34;81.75;102999.47;5074570;28;20042;-78
2022/01/20 08:09:38;;;;;;;19.33;2.65;;;;;;;2.35;80.63;102994.19;5075555;28;20041;-77
2022/01/20 08:12:05;;;;;;;24.70;3.47;;;;;;;2.36;80.03;103001.19;5075702;28;20064;-78
2022/01/20 08:14:30;;;;;;;18.42;3.50;;;;;;;2.45;78.79;102997.50;5075467;28;20043;-77
2022/01/20 08:16:56;;;;;;;17.98;3.72;;;;;;;2.53;77.27;103000.81;5074987;28;20396;-77
2022/01/20 08:19:21;;;;;;;18.38;2.88;;;;;;;2.64;74.62;103008.44;5075471;28;20063;-78
2022/01/20 08:21:47;;;;;;;17.02;2.45;;;;;;;2.70;74.28;102996.94;5075053;28;20043;-80
2022/01/20 08:24:12;;;;;;;17.63;2.97;;;;;;;2.73;73.94;103003.00;5075359;28;20036;-76
2022/01/20 08:26:38;;;;;;;15.40;2.45;;;;;;;2.79;72.88;103008.09;5075319;28;20403;-81
2022/01/20 08:29:03;;;;;;;20.05;2.72;;;;;;;2.83;73.11;103004.50;5076038;28;20035;-78
2022/01/20 08:31:29;;;;;;;25.48;2.95;;;;;;;2.89;71.94;102997.38;5073981;28;20032;-78
2022/01/20 08:33:55;;;;;;;23.77;3.13;;;;;;;2.95;71.54;102994.59;5075152;28;20393;-78
2022/01/20 08:36:20;;;;;;;26.88;3.70;;;;;;;3.02;71.72;103003.22;5075053;28;20402;-76
2022/01/20 08:38:46;;;;;;;18.35;2.95;;;;;;;3.06;71.81;103007.47;5074119;28;20217;-77
2022/01/20 08:41:11;;;;;;;15.80;2.50;;;;;;;3.10;71.15;103004.72;5075055;28;20035;-79
2022/01/20 08:43:38;;;;;;;17.23;2.80;;;;;;;3.12;70.27;103008.22;5075034;28;20106;-79
2022/01/20 08:46:07;;;;;;;20.77;2.67;;;;;;;3.13;70.15;103027.47;5075120;28;20055;-76
2022/01/20 08:48:33;;;;;;;15.93;2.95;;;;;;;3.12;70.49;103025.75;5075103;28;20448;-75
2022/01/20 08:50:59;;;;;;;21.38;2.30;;;;;;;3.13;70.58;103038.00;5075508;28;20040;-78
2022/01/20 08:53:26;;;;;;;22.20;3.60;;;;;;;3.15;71.64;103036.19;5075168;28;20036;-79
2022/01/20 08:55:51;;;;;;;11.57;2.38;;;;;;;3.12;69.79;103038.88;5074464;28;20056;-78
2022/01/20 08:58:17;;;;;;;16.15;2.75;;;;;;;3.08;69.54;103043.38;5073599;28;20040;-78
2022/01/20 09:00:42;;;;;;;16.38;2.70;;;;;;;3.05;70.35;103061.84;5074686;28;20028;-78
2022/01/20 09:03:09;;;;;;;29.35;3.85;;;;;;;3.03;70.87;103061.03;5074537;28;20091;-77
2022/01/20 09:05:35;;;;;;;12.15;1.88;;;;;;;3.06;71.77;103062.72;5074636;28;20039;-76
2022/01/20 09:08:02;;;;;;;24.17;2.63;;;;;;;3.17;70.54;103064.19;5075029;28;20094;-77
2022/01/20 09:10:36;;;;;;;20.73;4.00;;;;;;;3.38;69.41;103061.09;5074625;28;20103;-78
2022/01/20 09:15:45;;;;;;;26.92;3.38;;;;;;;3.71;69.33;103086.53;5074922;28;20079;-77
2022/01/20 09:18:11;;;;;;;15.50;2.85;;;;;;;3.72;69.32;103079.53;5073048;28;20112;-78
2022/01/20 09:20:38;;;;;;;22.50;3.00;;;;;;;3.63;69.69;103088.53;5073014;28;20124;-75
2022/01/20 09:23:04;;;;;;;23.33;3.58;;;;;;;3.54;69.41;103091.41;5074162;28;20028;-76
2022/01/20 09:25:30;;;;;;;27.77;3.28;;;;;;;3.33;69.02;103100.69;5074725;28;20036;-76
2022/01/20 09:27:55;;;;;;;14.93;2.35;;;;;;;3.19;69.23;103098.34;5073126;28;20033;-77
2022/01/20 09:30:22;;;;;;;17.55;2.83;;;;;;;3.12;70.31;103107.28;5074478;28;20118;-77
2022/01/20 09:33:12;;;;;;;17.65;3.22;;;;;;;3.21;70.99;103100.94;5073511;28;20381;-77
2022/01/20 09:35:39;;;;;;;20.52;3.03;;;;;;;3.61;69.67;103110.53;5074195;28;20036;-76
2022/01/20 09:38:05;;;;;;;17.50;3.00;;;;;;;3.91;69.43;103114.13;5073848;28;20036;-76
2022/01/20 09:40:33;;;;;;;13.95;2.72;;;;;;;4.00;67.96;103111.28;5073948;28;20029;-76
2022/01/20 09:43:00;;;;;;;12.63;2.60;;;;;;;3.83;68.80;103122.22;5073328;28;20123;-76
2022/01/20 09:45:26;;;;;;;19.25;2.22;;;;;;;3.57;71.07;103120.28;5076426;28;20048;-79
2022/01/20 09:47:52;;;;;;;20.10;2.13;;;;;;;3.36;71.83;103121.66;5077060;28;20048;-75
2022/01/20 09:50:20;;;;;;;21.70;3.22;;;;;;;3.14;75.81;103129.19;5076803;28;20060;-76
2022/01/20 09:52:47;;;;;;;21.63;3.15;;;;;;;2.95;77.93;103123.47;5074435;28;20109;-77
2022/01/20 09:55:13;;;;;;;18.00;2.40;;;;;;;2.76;79.11;103115.97;5073587;28;20036;-76
2022/01/20 09:57:38;;;;;;;18.38;2.47;;;;;;;2.67;80.25;103121.41;5074206;28;20025;-77
2022/01/20 10:00:08;;;;;;;21.42;2.95;;;;;;;2.63;80.14;103123.25;5073834;28;20032;-77
2022/01/20 10:02:34;;;;;;;26.85;2.88;;;;;;;2.63;80.31;103130.28;5073838;28;20035;-78
2022/01/20 10:04:59;;;;;;;20.40;3.13;;;;;;;2.57;80.67;103127.78;5072773;28;20033;-76
2022/01/20 10:07:32;;;;;;;17.35;3.20;;;;;;;2.55;80.11;103140.91;5073590;28;20465;-75
2022/01/20 10:09:57;;;;;;;15.57;2.22;;;;;;;2.64;77.19;103143.38;5073885;28;20112;-78
2022/01/20 10:12:33;;;;;;;13.40;2.22;;;;;;;2.85;76.45;103149.06;5073870;28;20127;-77
2022/01/20 10:14:59;;;;;;;20.98;3.70;;;;;;;3.09;75.29;103152.06;5073005;28;20346;-77
2022/01/20 10:17:30;;;;;;;13.73;2.45;;;;;;;3.40;75.36;103157.50;5073781;28;20025;-78
2022/01/20 10:20:01;;;;;;;25.90;3.17;;;;;;;3.81;73.47;103155.66;5073164;28;20039;-74
2022/01/20 10:22:28;;;;;;;14.05;2.45;;;;;;;4.11;71.04;103158.41;5073353;28;20039;-76
2022/01/20 10:25:05;;;;;;;17.92;2.70;;;;;;;4.28;70.10;103168.50;5071984;28;20024;-76
2022/01/20 10:27:34;;;;;;;18.02;2.63;;;;;;;4.37;69.14;103175.28;5073379;28;20025;-75
2022/01/20 10:30:11;;;;;;;12.98;2.58;;;;;;;4.50;69.03;103168.78;5073107;28;20035;-76
2022/01/20 10:32:58;;;;;;;17.25;2.63;;;;;;;4.67;67.92;103167.44;5073097;28;20028;-76
2022/01/20 10:35:26;;;;;;;18.92;3.17;;;;;;;4.72;67.66;103179.59;5073556;28;20025;-75
2022/01/20 10:37:59;;;;;;;17.45;2.80;;;;;;;4.72;65.56;103173.47;5072177;28;20073;-76
2022/01/20 10:40:25;;;;;;;12.52;2.08;;;;;;;5.04;65.69;103172.50;5072965;28;20033;-76
2022/01/20 10:42:50;;;;;;;12.23;2.45;;;;;;;5.14;67.00;103186.28;5073082;28;20356;-75
2022/01/20 10:45:25;;;;;;;15.30;2.90;;;;;;;5.29;67.05;103195.53;5071828;28;20032;-77
2022/01/20 10:47:53;;;;;;;10.52;1.95;;;;;;;5.14;66.22;103186.28;5072776;28;20036;-76
2022/01/20 10:50:23;;;;;;;20.27;2.30;;;;;;;5.00;67.51;103192.00;5073834;28;20057;-76
2022/01/20 10:52:50;;;;;;;20.25;2.80;;;;;;;4.82;67.57;103198.69;5072971;28;20046;-75
2022/01/20 10:55:34;;;;;;;12.02;2.55;;;;;;;4.72;67.63;103189.28;5072649;28;20036;-75
2022/01/20 10:58:16;;;;;;;14.85;2.65;;;;;;;4.75;68.07;103200.59;5073193;28;20473;-76
2022/01/20 11:00:46;;;;;;;11.68;2.30;;;;;;;4.76;67.88;103198.81;5073370;28;20074;-75
2022/01/20 11:03:12;;;;;;;20.30;2.78;;;;;;;4.69;67.72;103197.28;5073748;28;20032;-74
2022/01/20 11:05:39;;;;;;;16.88;3.33;;;;;;;4.68;68.17;103201.69;5072942;28;20033;-76
2022/01/20 11:08:06;;;;;;;17.02;2.83;;;;;;;4.83;69.56;103204.81;5073522;28;20040;-75
2022/01/20 11:10:32;;;;;;;13.88;2.38;;;;;;;5.12;68.62;103199.53;5073103;28;20025;-76
2022/01/20 11:12:58;;;;;;;18.20;2.13;;;;;;;5.57;67.36;103195.53;5072814;28;20043;-75
2022/01/20 11:15:29;;;;;;;17.15;2.75;;;;;;;5.92;65.06;103193.50;5072615;28;20405;-74
2022/01/20 11:17:56;;;;;;;16.33;2.78;;;;;;;5.79;64.89;103189.53;5072785;28;20036;-76
2022/01/20 11:20:28;;;;;;;15.32;2.55;;;;;;;5.42;66.85;103198.63;5072586;28;20036;-77
2022/01/20 11:23:03;;;;;;;17.17;2.15;;;;;;;4.88;68.04;103201.13;5072828;28;20423;-77
2022/01/20 11:25:30;;;;;;;18.55;3.03;;;;;;;4.59;69.37;103201.94;5073369;28;20046;-76
2022/01/20 11:28:22;;;;;;;20.10;2.50;;;;;;;4.50;69.18;103200.41;5073010;28;20067;-76
2022/01/20 11:30:56;;;;;;;23.90;2.47;;;;;;;4.52;69.73;103185.44;5069301;28;20041;-76
2022/01/20 11:33:35;;;;;;;13.93;2.45;;;;;;;4.70;69.13;103184.06;5072691;28;20052;-80
2022/01/20 11:36:02;;;;;;;20.80;2.78;;;;;;;4.90;68.29;103178.19;5072837;28;20029;-79
2022/01/20 11:38:43;;;;;;;20.95;2.60;;;;;;;4.99;68.53;103170.94;5071343;28;20033;-80
2022/01/20 11:41:17;;;;;;;20.70;2.78;;;;;;;5.04;68.62;103164.59;5072515;28;20444;-80
2022/01/20 11:43:51;;;;;;;16.73;2.55;;;;;;;5.46;69.11;103156.25;5073311;28;20115;-79
2022/01/20 11:46:18;;;;;;;12.15;2.25;;;;;;;5.68;67.52;103162.63;5071353;28;20033;-77
2022/01/20 11:49:01;;;;;;;14.27;2.70;;;;;;;5.35;67.59;103158.38;5072451;28;20029;-76
2022/01/20 11:51:49;;;;;;;15.35;2.92;;;;;;;5.15;68.37;103166.03;5073521;28;20117;-77
2022/01/20 11:54:31;;;;;;;14.63;2.72;;;;;;;5.31;68.01;103148.81;5062104;28;20036;-75
2022/01/20 11:57:06;;;;;;;13.52;2.30;;;;;;;5.64;64.91;103151.28;5075809;28;20108;-75
2022/01/20 11:59:40;;;;;;;11.07;2.20;;;;;;;6.00;63.54;103145.69;5075460;28;20028;-76
2022/01/20 12:02:06;;;;;;;11.38;2.38;;;;;;;5.79;64.98;103149.91;5075801;28;20021;-77
2022/01/20 12:04:33;;;;;;;15.50;2.80;;;;;;;5.47;66.95;103157.97;5075726;28;20036;-76
2022/01/20 12:06:59;;;;;;;13.93;2.08;;;;;;;5.10;68.09;103163.53;5076014;28;20033;-76
2022/01/20 12:09:36;;;;;;;14.63;2.22;;;;;;;4.78;69.76;103165.38;5075654;28;20043;-75
2022/01/20 12:12:17;;;;;;;16.20;2.30;;;;;;;4.67;70.57;103160.41;5075858;28;20461;-75
2022/01/20 12:14:43;;;;;;;13.40;1.80;;;;;;;4.54;70.87;103159.03;5075431;28;20025;-78
2022/01/20 12:17:15;;;;;;;11.10;1.98;;;;;;;4.62;71.31;103159.66;5075676;28;20035;-78
2022/01/20 12:19:43;;;;;;;14.65;1.90;;;;;;;5.03;69.81;103147.03;5073950;28;20033;-75
2022/01/20 12:22:08;;;;;;;10.90;2.13;;;;;;;5.58;68.01;103149.72;5074861;28;20059;-76
2022/01/20 12:24:35;;;;;;;15.45;2.00;;;;;;;6.13;66.93;103144.38;5075419;28;20060;-76
2022/01/20 12:27:13;;;;;;;19.08;2.55;;;;;;;6.71;64.63;103148.47;5075723;28;20032;-76
2022/01/20 12:29:38;;;;;;;16.33;2.72;;;;;;;7.37;62.27;103151.19;5075489;28;20170;-76
2022/01/20 12:32:14;;;;;;;18.70;2.35;;;;;;;7.62;61.33;103147.56;5074482;28;20451;-76
2022/01/20 12:34:41;;;;;;;12.65;2.30;;;;;;;7.72;59.97;103148.06;5075085;28;20032;-77
2022/01/20 12:37:08;;;;;;;15.05;2.80;;;;;;;7.56;60.52;103148.66;5075098;28;20177;-76
2022/01/20 12:39:36;;;;;;;12.27;2.28;;;;;;;7.30;60.21;103148.84;5074986;28;20060;-76
2022/01/20 12:42:07;;;;;;;16.25;2.90;;;;;;;7.29;60.33;103158.59;5073489;28;20032;-76